createdAt,value
2023-04-07T00:00:46.448Z,74.3
2023-04-07T00:05:54.037Z,74.4
2023-04-07T00:16:27.846Z,75.2
2023-04-07T00:21:04.135Z,75.4
2023-04-07T00:26:40.606Z,75.1
2023-04-07T00:31:27.071Z,75.0
2023-04-07T00:36:33.321Z,74.5
2023-04-07T00:41:39.705Z,74.8
2023-04-07T00:46:46.247Z,74.4
2023-04-07T00:51:52.606Z,74.7
2023-04-07T00:56:59.010Z,74.5
2023-04-07T01:02:05.548Z,74.7
2023-04-07T01:07:01.749Z,75.7
2023-04-07T01:17:14.632Z,74.8
2023-04-07T01:22:21.092Z,74.5
2023-04-07T01:27:36.528Z,74.4
2023-04-07T01:32:44.005Z,74.9
2023-04-07T01:37:50.292Z,75.3
2023-04-07T01:42:56.691Z,74.8
2023-04-07T01:48:03.153Z,74.7
2023-04-07T01:53:09.442Z,74.4
2023-04-07T02:13:34.984Z,75.7
2023-04-07T02:24:07.794Z,76.0
2023-04-07T02:28:54.117Z,75.6
2023-04-07T02:34:00.542Z,75.0
2023-04-07T02:44:13.382Z,75.2
2023-04-07T02:49:19.790Z,75.8
2023-04-07T02:54:46.175Z,75.7
2023-04-07T02:59:32.525Z,74.8
2023-04-07T03:04:38.929Z,75.6
2023-04-07T03:09:35.263Z,75.1
2023-04-07T03:14:51.652Z,75.3
2023-04-07T03:19:58.199Z,76.1
2023-04-07T03:25:04.565Z,75.2
2023-04-07T03:30:10.948Z,75.8
2023-04-07T03:35:41.405Z,75.8
2023-04-07T03:40:23.752Z,75.7
2023-04-07T03:51:00.779Z,76.2
2023-04-07T04:00:49.679Z,76.2
2023-04-07T04:11:04.057Z,75.9
2023-04-07T04:16:00.437Z,76.4
2023-04-07T04:21:16.832Z,76.2
2023-04-07T04:26:23.275Z,75.9
2023-04-07T04:31:29.742Z,76.2
2023-04-07T04:36:37.978Z,76.4
2023-04-07T04:41:42.504Z,77.0
2023-04-07T04:46:48.980Z,75.8
2023-04-07T04:51:55.379Z,76.6
2023-04-07T05:02:32.481Z,76.1
2023-04-07T05:07:14.741Z,76.9
2023-04-07T05:12:21.119Z,76.1
2023-04-07T05:27:40.255Z,76.8
2023-04-07T05:32:36.645Z,76.2
2023-04-07T05:37:52.996Z,77.4
2023-04-07T05:42:49.521Z,76.5
2023-04-07T05:48:06.111Z,76.2
2023-04-07T05:53:16.455Z,75.7
2023-04-07T05:58:32.813Z,76.1
2023-04-07T06:03:39.348Z,76.2
2023-04-07T06:09:09.625Z,75.9
2023-04-07T06:13:37.920Z,75.7
2023-04-07T06:18:44.455Z,75.6
2023-04-07T06:23:51.425Z,76.1
2023-04-07T06:28:47.176Z,75.7
2023-04-07T06:34:03.738Z,76.0
2023-04-07T06:49:22.780Z,77.1
2023-04-07T06:54:29.116Z,77.4
2023-04-07T06:59:35.512Z,77.6
2023-04-07T07:05:01.965Z,77.5
2023-04-07T07:09:48.238Z,77.4
2023-04-07T07:15:18.688Z,77.2
2023-04-07T07:20:01.059Z,77.4
2023-04-07T07:25:07.561Z,77.5
2023-04-07T07:30:13.907Z,77.9
2023-04-07T07:35:20.272Z,78.2
2023-04-07T07:40:16.691Z,78.2
2023-04-07T07:45:33.200Z,78.5
2023-04-07T07:50:39.567Z,78.8
2023-04-07T07:55:46.125Z,78.8
2023-04-07T08:00:52.529Z,78.7
2023-04-07T08:11:07.867Z,79.1
2023-04-07T08:21:22.241Z,80.1
2023-04-07T08:26:29.646Z,79.9
2023-04-07T08:31:26.017Z,80.5
2023-04-07T08:36:44.061Z,79.9
2023-04-07T08:41:48.959Z,80.3
2023-04-07T08:46:45.299Z,80.4
2023-04-07T08:52:04.041Z,80.9
2023-04-07T08:57:07.815Z,80.3
2023-04-07T09:02:15.212Z,80.9
2023-04-07T09:07:11.549Z,81.0
2023-04-07T09:12:17.952Z,81.1
2023-04-07T09:17:34.378Z,80.5
2023-04-07T09:23:04.912Z,81.1
2023-04-07T09:28:21.322Z,81.1
2023-04-07T09:32:43.604Z,81.0
2023-04-07T09:37:59.972Z,81.5
2023-04-07T09:43:26.433Z,81.9
2023-04-07T09:48:12.870Z,81.0
2023-04-07T09:53:19.468Z,81.1
2023-04-07T09:58:25.866Z,81.0
2023-04-07T10:24:01.895Z,81.6
2023-04-07T10:29:04.376Z,81.9
2023-04-07T10:39:17.349Z,82.2
2023-04-07T10:44:23.827Z,82.3
2023-04-07T10:49:34.250Z,82.5
2023-04-07T10:59:43.289Z,84.2
2023-04-07T11:04:49.834Z,85.2
2023-04-07T11:10:30.147Z,84.4
2023-04-07T11:15:02.505Z,84.6
2023-04-07T11:30:45.751Z,84.3
2023-04-07T11:35:48.184Z,84.5
2023-04-07T11:40:34.461Z,84.6
2023-04-07T11:45:44.859Z,84.8
2023-04-07T11:50:47.339Z,84.6
2023-04-07T11:55:53.891Z,84.6
2023-04-07T12:01:00.267Z,84.7
2023-04-07T12:06:06.812Z,84.4
2023-04-07T12:11:13.253Z,84.7
2023-04-07T12:16:33.704Z,84.9
2023-04-07T12:21:26.048Z,85.2
2023-04-07T12:26:23.153Z,85.3
2023-04-07T12:31:58.959Z,84.9
2023-04-07T12:37:09.331Z,85.0
2023-04-07T12:41:51.808Z,85.0
2023-04-07T12:46:58.169Z,85.0
2023-04-07T12:51:54.525Z,84.7
2023-04-07T12:57:10.938Z,84.8
2023-04-07T13:02:17.513Z,84.8
2023-04-07T13:12:50.230Z,84.9
2023-04-07T13:18:48.697Z,85.3
2023-04-07T13:22:49.214Z,85.7
2023-04-07T13:32:56.062Z,86.1
2023-04-07T13:38:02.394Z,85.9
2023-04-07T13:43:12.863Z,85.9
2023-04-07T13:53:21.742Z,86.1
2023-04-07T14:08:41.106Z,86.5
2023-04-07T14:14:31.550Z,86.6
2023-04-07T14:18:53.970Z,86.6
2023-04-07T14:29:10.726Z,86.9
2023-04-07T14:34:03.072Z,86.9
2023-04-07T14:39:39.652Z,86.7
2023-04-07T14:44:15.966Z,86.8
2023-04-07T14:49:32.476Z,86.9
2023-04-07T14:54:38.863Z,87.0
2023-04-07T14:59:45.283Z,86.8
2023-04-07T15:04:51.684Z,86.8
2023-04-07T15:09:58.022Z,86.9
2023-04-07T15:14:54.408Z,86.9
2023-04-07T15:20:00.762Z,87.0
2023-04-07T15:25:07.149Z,86.6
2023-04-07T15:30:57.641Z,86.5
2023-04-07T15:35:50.121Z,86.5
2023-04-07T15:50:49.166Z,86.4
2023-04-07T15:55:55.546Z,86.4
2023-04-07T16:01:01.960Z,86.4
2023-04-07T16:11:58.786Z,86.4
2023-04-07T16:16:21.304Z,86.4
2023-04-07T16:31:40.556Z,86.0
2023-04-07T16:41:57.306Z,85.7
2023-04-07T16:47:19.744Z,85.6
2023-04-07T16:52:06.088Z,85.5
2023-04-07T16:57:12.419Z,85.8
2023-04-07T17:02:19.099Z,85.8
2023-04-07T17:07:25.348Z,86.1
2023-04-07T17:12:31.825Z,86.1
2023-04-07T17:17:38.343Z,86.5
2023-04-07T17:22:44.693Z,86.6
2023-04-07T17:27:41.029Z,86.8
2023-04-07T17:32:47.417Z,86.8
2023-04-07T17:38:47.912Z,86.3
2023-04-07T17:43:24.206Z,85.7
2023-04-07T17:48:40.719Z,85.4
2023-04-07T17:53:47.489Z,85.2
2023-04-07T17:58:29.794Z,85.3
2023-04-07T18:03:36.325Z,84.9
2023-04-07T18:08:46.568Z,84.9
2023-04-07T18:15:01.680Z,84.8
2023-04-07T18:19:16.033Z,85.0
2023-04-07T18:29:10.190Z,85.3
2023-04-07T18:34:54.373Z,85.0
2023-04-07T18:44:28.118Z,85.3
2023-04-07T18:49:58.527Z,85.1
2023-04-07T18:54:40.903Z,85.0
2023-04-07T19:00:07.364Z,84.9
2023-04-07T19:04:53.782Z,84.8
2023-04-07T19:10:00.211Z,84.6
2023-04-07T19:15:06.548Z,84.7
2023-04-07T19:30:25.801Z,85.5
2023-04-07T19:35:52.250Z,86.0
2023-04-07T19:41:12.750Z,85.6
2023-04-07T19:46:09.067Z,85.4
2023-04-07T19:50:51.441Z,85.5
2023-04-07T19:55:57.892Z,85.7
2023-04-07T20:01:04.455Z,86.3
2023-04-07T20:06:32.967Z,85.6
2023-04-07T20:11:41.215Z,85.6
2023-04-07T20:22:09.043Z,85.5
2023-04-07T20:26:35.410Z,85.5
2023-04-07T20:31:42.807Z,85.5
2023-04-07T20:36:49.230Z,85.5
2023-04-07T20:47:04.601Z,86.1
2023-04-07T20:57:22.478Z,85.3
2023-04-07T21:07:31.515Z,85.4
2023-04-07T21:18:08.072Z,85.1
2023-04-07T21:23:14.421Z,85.4
2023-04-07T21:28:00.737Z,85.3
2023-04-07T21:33:07.165Z,85.3
2023-04-07T21:38:15.116Z,85.2
2023-04-07T21:43:21.520Z,85.1
2023-04-07T21:48:17.878Z,85.0
2023-04-07T21:53:33.289Z,85.1
2023-04-07T21:58:40.747Z,84.9
2023-04-07T22:03:37.241Z,84.9
2023-04-07T22:09:01.056Z,84.7
2023-04-07T22:19:36.170Z,84.7
2023-04-07T22:29:22.502Z,84.5
2023-04-07T22:34:28.845Z,84.7
2023-04-07T22:39:25.212Z,84.4
2023-04-07T22:44:41.665Z,84.6
2023-04-07T22:49:38.017Z,84.4
2023-04-07T22:54:53.448Z,84.5
2023-04-07T22:59:50.829Z,84.4
2023-04-07T23:05:21.409Z,84.3
2023-04-07T23:10:13.635Z,84.0
2023-04-07T23:15:20.254Z,84.0
2023-04-07T23:20:27.159Z,84.0
2023-04-07T23:25:57.605Z,83.9
2023-04-07T23:30:40.093Z,83.8
2023-04-07T23:40:42.824Z,83.5
2023-04-07T23:52:21.761Z,83.5
2023-04-07T23:56:12.202Z,83.4
